Time;durP1;ratioP1;P1;durP2;ratioP2;P2;SDS_P1;SDS_P2;PMS_P1;PMS_P2;Temp;Humidity;BMP_temperature;BMP_pressure;BME280_temperature;BME280_humidity;BME280_pressure;Samples;Min_cycle;Max_cycle;Signal;HPM_P1;HPM_P2
2021/12/12 00:01:31;;;;;;;26.83;10.68;;;4.00;99.90;;;;;;4163599;28;20109;-81
2021/12/12 00:03:39;;;;;;;29.27;11.25;;;4.90;99.90;;;;;;4181516;28;20053;-81
2021/12/12 00:05:53;;;;;;;29.45;10.55;;;4.00;99.90;;;;;;4147642;28;20080;-81
2021/12/12 00:07:54;;;;;;;27.35;11.70;;;4.00;99.90;;;;;;4164722;28;20048;-81
2021/12/12 00:10:03;;;;;;;32.03;11.68;;;4.40;99.90;;;;;;4165042;28;20077;-81
2021/12/12 00:12:11;;;;;;;26.73;11.45;;;4.10;99.90;;;;;;4180867;28;20037;-80
2021/12/12 00:14:21;;;;;;;30.17;11.52;;;4.10;99.90;;;;;;4162589;28;20201;-80
2021/12/12 00:16:22;;;;;;;30.33;11.45;;;4.50;99.90;;;;;;4145915;28;20441;-80
2021/12/12 00:18:24;;;;;;;24.13;10.45;;;4.80;99.90;;;;;;4146378;28;20088;-80
2021/12/12 00:20:26;;;;;;;26.90;11.38;;;4.10;99.90;;;;;;4146605;28;20530;-82
2021/12/12 00:22:29;;;;;;;34.78;11.38;;;5.10;99.90;;;;;;4162708;28;20085;-82
2021/12/12 00:24:32;;;;;;;36.28;11.73;;;5.10;99.90;;;;;;4179500;28;20044;-81
2021/12/12 00:26:33;;;;;;;28.27;12.20;;;4.10;99.90;;;;;;4162692;28;20045;-81
2021/12/12 00:28:37;;;;;;;28.35;11.93;;;4.80;99.90;;;;;;4162573;28;20470;-81
2021/12/12 00:30:38;;;;;;;34.33;12.25;;;5.40;99.90;;;;;;4180502;28;20428;-81
2021/12/12 00:32:40;;;;;;;29.98;12.25;;;4.10;99.90;;;;;;4180224;28;20095;-81
2021/12/12 00:34:48;;;;;;;28.67;10.35;;;4.10;99.90;;;;;;4146065;28;20073;-81
2021/12/12 00:36:48;;;;;;;29.92;10.82;;;4.10;99.90;;;;;;4179489;28;20044;-81
2021/12/12 00:38:56;;;;;;;27.38;10.15;;;4.50;99.90;;;;;;4162426;28;20407;-81
2021/12/12 00:41:04;;;;;;;25.20;10.82;;;4.20;99.90;;;;;;4162317;28;20061;-81
2021/12/12 00:43:22;;;;;;;29.02;11.48;;;4.60;99.90;;;;;;4180327;28;20053;-81
2021/12/12 00:45:23;;;;;;;27.52;10.63;;;4.20;99.90;;;;;;4162267;28;20049;-81
2021/12/12 00:47:26;;;;;;;26.17;10.80;;;5.10;99.90;;;;;;4161991;28;20073;-81
2021/12/12 00:49:29;;;;;;;30.15;10.35;;;4.50;99.90;;;;;;4162741;28;20677;-81
2021/12/12 00:51:33;;;;;;;29.95;12.85;;;4.30;99.90;;;;;;4145972;28;20115;-81
2021/12/12 00:53:38;;;;;;;29.67;11.30;;;4.20;99.90;;;;;;4179724;28;20072;-81
2021/12/12 00:55:42;;;;;;;31.20;10.68;;;4.70;99.90;;;;;;4161938;28;20046;-81
2021/12/12 00:57:49;;;;;;;33.42;11.52;;;4.50;99.90;;;;;;4179458;28;20128;-81
2021/12/12 00:59:50;;;;;;;36.38;12.25;;;4.20;99.90;;;;;;4162540;28;20069;-81
2021/12/12 01:01:52;;;;;;;28.50;13.02;;;4.20;99.90;;;;;;4180196;28;20044;-81
2021/12/12 01:04:12;;;;;;;29.00;11.35;;;4.20;99.90;;;;;;4179248;28;20048;-81
2021/12/12 01:06:14;;;;;;;38.95;13.10;;;4.20;99.90;;;;;;4163043;28;20393;-81
2021/12/12 01:08:15;;;;;;;25.40;11.13;;;4.90;99.90;;;;;;4145772;28;20046;-81
2021/12/12 01:10:33;;;;;;;25.73;11.20;;;4.20;99.90;;;;;;4149754;28;20545;-81
2021/12/12 01:12:35;;;;;;;29.70;12.63;;;4.20;99.90;;;;;;4180402;28;20164;-81
2021/12/12 01:14:42;;;;;;;32.50;11.05;;;4.20;99.90;;;;;;4162216;28;20312;-81
2021/12/12 01:16:48;;;;;;;33.60;12.07;;;4.20;99.90;;;;;;4145493;28;20080;-81
2021/12/12 01:18:56;;;;;;;27.42;10.80;;;5.20;99.90;;;;;;4179656;28;20045;-81
2021/12/12 01:21:03;;;;;;;34.72;13.18;;;4.50;99.90;;;;;;4179947;28;20049;-81
2021/12/12 01:23:13;;;;;;;29.70;10.95;;;4.20;99.90;;;;;;4145947;28;20080;-81
2021/12/12 01:25:19;;;;;;;29.30;11.57;;;4.20;99.90;;;;;;4179859;28;20057;-81
2021/12/12 01:27:22;;;;;;;29.52;11.30;;;4.20;99.90;;;;;;4161887;28;20045;-81
2021/12/12 01:29:24;;;;;;;36.33;12.77;;;5.10;99.90;;;;;;4161890;28;20560;-81
2021/12/12 01:31:30;;;;;;;35.60;13.48;;;5.30;99.90;;;;;;4179470;28;20544;-81
2021/12/12 01:33:35;;;;;;;32.15;12.25;;;4.20;99.90;;;;;;4179434;28;20049;-81
2021/12/12 01:35:40;;;;;;;27.60;12.68;;;4.20;99.90;;;;;;4145695;28;20045;-81
2021/12/12 01:38:50;;;;;;;34.97;12.63;;;4.20;99.90;;;;;;4164480;28;20132;-81
2021/12/12 01:40:14;;;;;;;36.25;12.57;;;4.20;99.90;;;;;;4182560;28;20062;-81
2021/12/12 01:42:21;;;;;;;29.30;12.30;;;4.20;99.90;;;;;;4149087;28;20050;-81
2021/12/12 01:44:32;;;;;;;33.63;11.90;;;4.20;99.90;;;;;;4165840;28;20041;-81
2021/12/12 01:46:44;;;;;;;33.80;13.18;;;4.20;99.90;;;;;;4183965;28;20481;-80
2021/12/12 01:49:03;;;;;;;40.08;13.07;;;4.20;99.90;;;;;;4196643;28;20060;-80
2021/12/12 01:51:08;;;;;;;31.25;13.40;;;4.20;99.90;;;;;;4178804;28;20452;-80
2021/12/12 01:53:13;;;;;;;29.42;12.55;;;4.20;99.90;;;;;;4195717;28;20516;-80
2021/12/12 01:55:31;;;;;;;35.67;11.80;;;4.80;99.90;;;;;;4176567;28;20471;-80
2021/12/12 01:57:35;;;;;;;31.13;12.80;;;4.20;99.90;;;;;;4183260;28;20150;-80
2021/12/12 01:59:37;;;;;;;31.30;12.52;;;4.90;99.90;;;;;;4164718;28;20065;-81
2021/12/12 02:01:50;;;;;;;30.98;12.10;;;4.20;99.90;;;;;;4182487;28;20044;-80
2021/12/12 02:04:04;;;;;;;39.97;14.02;;;4.20;99.90;;;;;;4164652;28;20049;-80
2021/12/12 02:06:10;;;;;;;35.20;13.68;;;4.30;99.90;;;;;;4165376;28;20049;-80
2021/12/12 02:08:15;;;;;;;31.88;11.05;;;4.20;99.90;;;;;;4148516;28;20120;-81
2021/12/12 02:10:27;;;;;;;25.90;11.10;;;4.30;99.90;;;;;;4169671;28;20124;-81
2021/12/12 02:12:28;;;;;;;35.33;13.95;;;4.20;99.90;;;;;;4164585;28;20049;-81
2021/12/12 02:14:32;;;;;;;33.85;12.00;;;4.30;99.90;;;;;;4181007;28;20139;-81
2021/12/12 02:16:34;;;;;;;35.60;12.15;;;4.30;99.90;;;;;;4141620;28;20096;-81
2021/12/12 02:18:40;;;;;;;27.13;12.50;;;4.30;99.90;;;;;;4164087;28;20572;-81
2021/12/12 02:24:14;;;;;;;34.97;11.10;;;5.50;99.90;;;;;;4131182;28;20057;-81
2021/12/12 02:35:21;;;;;;;28.10;11.40;;;4.30;99.90;;;;;;4181624;28;20051;-80
2021/12/12 02:37:23;;;;;;;25.38;10.02;;;5.00;99.90;;;;;;4147750;28;20046;-80
2021/12/12 02:39:25;;;;;;;28.65;11.07;;;4.40;99.90;;;;;;4164167;28;20065;-80
2021/12/12 02:41:28;;;;;;;31.23;12.50;;;4.40;99.90;;;;;;4163872;28;20049;-80
2021/12/12 02:43:33;;;;;;;37.08;11.23;;;5.70;99.90;;;;;;4163947;28;20133;-80
2021/12/12 02:45:36;;;;;;;24.80;10.98;;;4.40;99.90;;;;;;4181334;28;20345;-81
2021/12/12 02:47:37;;;;;;;26.92;10.32;;;5.40;99.90;;;;;;4163467;28;20120;-80
2021/12/12 02:50:08;;;;;;;32.58;10.38;;;4.40;99.90;;;;;;4147832;28;20064;-81
2021/12/12 02:52:15;;;;;;;26.90;10.45;;;4.40;99.90;;;;;;4178681;28;20049;-81
2021/12/12 02:54:17;;;;;;;32.85;10.50;;;4.40;99.90;;;;;;4147407;28;20576;-81
2021/12/12 02:56:22;;;;;;;28.85;11.68;;;4.40;99.90;;;;;;4147499;28;20643;-81
2021/12/12 02:58:24;;;;;;;28.55;10.88;;;4.50;99.90;;;;;;4135127;28;20446;-81
2021/12/12 03:00:29;;;;;;;32.60;10.75;;;4.50;99.90;;;;;;4163972;28;20048;-81
2021/12/12 03:02:33;;;;;;;32.80;10.73;;;4.50;99.90;;;;;;4163819;28;20060;-80
2021/12/12 03:04:35;;;;;;;23.48;9.77;;;5.10;99.90;;;;;;4141574;28;20056;-80
2021/12/12 03:06:39;;;;;;;32.28;11.15;;;4.50;99.90;;;;;;4147717;28;20058;-80
2021/12/12 03:08:43;;;;;;;30.50;10.18;;;4.50;99.90;;;;;;4164692;28;20094;-80
2021/12/12 03:10:46;;;;;;;21.33;10.32;;;4.50;99.90;;;;;;4154516;28;20622;-80
2021/12/12 03:12:47;;;;;;;29.50;10.32;;;4.50;99.90;;;;;;4181426;28;20076;-81
2021/12/12 03:14:53;;;;;;;24.98;10.43;;;4.50;99.90;;;;;;4180901;28;20041;-81
2021/12/12 03:16:53;;;;;;;26.33;11.02;;;4.50;99.90;;;;;;4180831;28;20513;-81
2021/12/12 03:18:55;;;;;;;19.25;9.63;;;4.50;99.90;;;;;;4163355;28;20093;-80
2021/12/12 03:21:04;;;;;;;22.45;9.63;;;4.50;99.90;;;;;;4163506;28;20049;-80
2021/12/12 03:23:20;;;;;;;25.88;9.00;;;4.50;99.90;;;;;;4180983;28;20041;-81
2021/12/12 03:25:21;;;;;;;28.70;9.98;;;4.50;99.90;;;;;;4163420;28;20128;-81
2021/12/12 03:27:23;;;;;;;25.65;9.38;;;5.40;99.90;;;;;;4180701;28;20131;-81
2021/12/12 03:29:25;;;;;;;23.17;8.65;;;4.60;99.90;;;;;;4163035;28;20548;-81
2021/12/12 03:31:57;;;;;;;21.65;9.02;;;4.90;99.90;;;;;;4180417;28;20051;-81
2021/12/12 03:34:00;;;;;;;24.08;9.00;;;4.70;99.90;;;;;;4162677;28;20090;-81
2021/12/12 03:36:09;;;;;;;35.33;9.93;;;4.60;99.90;;;;;;4163406;28;20045;-81
2021/12/12 03:38:13;;;;;;;31.42;11.63;;;4.60;99.90;;;;;;4163325;28;20383;-81
2021/12/12 03:40:24;;;;;;;25.55;8.98;;;4.60;99.90;;;;;;4146474;28;20120;-81
2021/12/12 03:42:27;;;;;;;24.85;8.90;;;4.60;99.90;;;;;;4146486;28;20100;-80
2021/12/12 03:44:31;;;;;;;23.73;8.57;;;4.70;99.90;;;;;;4146686;28;20514;-81
2021/12/12 03:46:33;;;;;;;21.23;7.97;;;4.70;99.90;;;;;;4169823;28;20045;-81
2021/12/12 03:48:34;;;;;;;22.48;8.40;;;4.70;99.90;;;;;;4146831;28;20054;-81
2021/12/12 03:50:43;;;;;;;30.13;8.10;;;4.70;99.90;;;;;;4180713;28;20411;-80
2021/12/12 03:52:45;;;;;;;21.67;8.77;;;5.80;99.90;;;;;;4180714;28;20113;-81
2021/12/12 03:54:51;;;;;;;22.55;7.32;;;5.80;99.90;;;;;;4162768;28;20048;-80
2021/12/12 03:56:52;;;;;;;17.65;8.05;;;4.80;99.90;;;;;;4163356;28;20041;-80
2021/12/12 03:58:53;;;;;;;19.40;6.88;;;4.80;99.90;;;;;;4179836;28;20114;-80
2021/12/12 04:01:14;;;;;;;17.05;7.60;;;5.60;99.90;;;;;;4180440;28;20493;-80
2021/12/12 04:03:17;;;;;;;17.15;6.63;;;4.80;99.90;;;;;;4163111;28;20477;-80
2021/12/12 04:05:19;;;;;;;18.40;7.07;;;4.90;99.90;;;;;;4168562;28;20052;-81
2021/12/12 04:07:26;;;;;;;19.20;8.38;;;5.40;99.90;;;;;;4164340;28;20095;-80
2021/12/12 04:09:27;;;;;;;16.13;7.05;;;5.00;99.90;;;;;;4130718;28;20137;-80
2021/12/12 04:11:40;;;;;;;13.35;6.10;;;4.90;99.90;;;;;;4178131;28;20498;-80
2021/12/12 04:13:43;;;;;;;18.08;6.97;;;5.60;99.90;;;;;;4163192;28;20142;-80
2021/12/12 04:15:49;;;;;;;21.40;6.25;;;4.90;99.90;;;;;;4163069;28;20063;-80
2021/12/12 04:17:50;;;;;;;15.93;5.88;;;4.90;99.90;;;;;;4164564;28;20494;-80
2021/12/12 04:19:54;;;;;;;15.35;7.07;;;4.90;99.90;;;;;;4146911;28;20108;-80
2021/12/12 04:21:56;;;;;;;13.52;5.78;;;5.50;99.90;;;;;;4131623;28;20523;-79
2021/12/12 04:23:58;;;;;;;22.73;7.28;;;5.90;99.90;;;;;;4162524;28;20057;-80
2021/12/12 04:26:17;;;;;;;12.45;6.32;;;5.20;99.90;;;;;;4180321;28;20037;-80
2021/12/12 04:28:18;;;;;;;13.60;6.32;;;5.00;99.90;;;;;;4180346;28;20095;-81
2021/12/12 04:30:23;;;;;;;14.05;6.15;;;5.40;99.90;;;;;;4180781;28;20045;-80
2021/12/12 04:32:27;;;;;;;14.20;5.63;;;5.00;99.90;;;;;;4162490;28;20056;-80
2021/12/12 04:34:32;;;;;;;10.65;5.32;;;5.00;99.90;;;;;;4180507;28;20041;-80
2021/12/12 04:36:37;;;;;;;14.65;5.90;;;5.70;99.90;;;;;;4180429;28;20099;-81
2021/12/12 04:38:37;;;;;;;16.13;4.68;;;5.40;99.90;;;;;;4180249;28;20481;-80
2021/12/12 04:40:38;;;;;;;12.18;5.53;;;5.80;99.90;;;;;;4162484;28;20047;-80
2021/12/12 04:42:41;;;;;;;15.55;5.45;;;5.10;99.90;;;;;;4162420;28;20050;-80
2021/12/12 04:44:43;;;;;;;12.05;5.55;;;5.50;99.90;;;;;;4179954;28;20120;-79
2021/12/12 04:51:36;;;;;;;10.50;5.30;;;5.00;99.90;;;;;;4179589;28;20064;-80
2021/12/12 04:53:45;;;;;;;10.30;5.47;;;4.90;99.90;;;;;;4161512;28;20142;-80
2021/12/12 04:56:08;;;;;;;12.60;4.88;;;4.90;99.90;;;;;;4162074;28;20049;-80
2021/12/12 04:58:20;;;;;;;13.48;5.15;;;5.10;99.90;;;;;;4162116;28;20097;-80
2021/12/12 05:00:29;;;;;;;12.38;4.85;;;4.90;99.90;;;;;;4179983;28;20493;-80
2021/12/12 05:02:38;;;;;;;9.23;4.70;;;5.80;99.90;;;;;;4161844;28;20491;-80
2021/12/12 05:05:00;;;;;;;12.88;4.57;;;4.90;99.90;;;;;;4155281;28;20038;-81
2021/12/12 05:07:19;;;;;;;11.35;5.60;;;4.90;99.90;;;;;;4145976;28;20080;-81
2021/12/12 05:09:33;;;;;;;;;;;4.90;99.90;;;;;;4146481;28;20105;-81
2021/12/12 05:11:39;;;;;;;10.68;4.38;;;4.90;99.90;;;;;;4162528;28;19921;-81
2021/12/12 05:13:48;;;;;;;10.35;5.55;;;4.90;99.90;;;;;;4164789;28;20136;-81
2021/12/12 05:15:52;;;;;;;13.85;4.82;;;5.50;99.90;;;;;;4165941;28;20049;-81
2021/12/12 05:18:04;;;;;;;10.73;4.63;;;4.90;99.90;;;;;;4165633;28;20148;-81
2021/12/12 05:20:12;;;;;;;8.82;4.53;;;4.90;99.90;;;;;;4165581;28;20460;-80
2021/12/12 05:22:18;;;;;;;10.55;5.68;;;4.90;99.90;;;;;;4165281;28;20478;-80
2021/12/12 05:24:21;;;;;;;8.77;4.50;;;4.90;99.90;;;;;;4183629;28;20045;-80
2021/12/12 05:26:33;;;;;;;13.43;4.47;;;4.90;99.90;;;;;;4183239;28;20045;-81
2021/12/12 05:28:42;;;;;;;9.73;4.28;;;5.00;99.90;;;;;;4165095;28;20045;-80
2021/12/12 05:30:43;;;;;;;8.15;4.32;;;5.30;99.90;;;;;;4182871;28;20040;-80
2021/12/12 05:32:46;;;;;;;8.23;4.40;;;4.90;99.90;;;;;;4182428;28;20460;-80
2021/12/12 05:34:49;;;;;;;7.78;4.40;;;6.00;99.90;;;;;;4164258;28;20054;-80
2021/12/12 05:36:53;;;;;;;9.68;4.20;;;5.00;99.90;;;;;;4164712;28;20488;-81
2021/12/12 05:38:57;;;;;;;10.02;4.03;;;5.00;99.90;;;;;;4165171;28;20128;-81
2021/12/12 05:40:58;;;;;;;8.15;4.63;;;6.00;99.90;;;;;;4164893;28;20080;-80
2021/12/12 05:43:01;;;;;;;6.32;4.22;;;6.00;99.90;;;;;;4164328;28;20484;-81
2021/12/12 05:45:05;;;;;;;6.80;4.28;;;5.10;99.90;;;;;;4164773;28;20045;-81
2021/12/12 05:47:08;;;;;;;7.10;3.80;;;5.10;99.90;;;;;;4163948;28;20050;-80
2021/12/12 05:49:10;;;;;;;8.32;4.60;;;5.10;99.90;;;;;;4162394;28;20382;-80
2021/12/12 05:51:12;;;;;;;10.18;4.80;;;5.90;99.90;;;;;;4164835;28;20060;-80
2021/12/12 05:53:14;;;;;;;11.05;4.47;;;5.10;99.90;;;;;;4164637;28;20099;-80
2021/12/12 05:55:16;;;;;;;8.95;4.43;;;5.10;99.90;;;;;;4164317;28;20049;-81
2021/12/12 05:57:23;;;;;;;8.02;4.18;;;5.10;99.90;;;;;;4182157;28;20041;-81
2021/12/12 05:59:24;;;;;;;7.03;4.13;;;5.50;99.90;;;;;;4182404;28;20049;-81
2021/12/12 06:01:28;;;;;;;7.93;3.95;;;6.00;99.90;;;;;;4164715;28;20053;-80
2021/12/12 06:03:33;;;;;;;7.32;3.92;;;5.20;99.90;;;;;;4148071;28;20131;-81
2021/12/12 06:05:34;;;;;;;9.15;4.70;;;5.20;99.90;;;;;;4163639;28;20545;-81
2021/12/12 06:07:35;;;;;;;7.70;4.10;;;6.30;99.90;;;;;;4181888;28;20045;-81
2021/12/12 06:09:37;;;;;;;9.75;3.97;;;5.30;99.90;;;;;;4181430;28;20120;-81
2021/12/12 06:11:42;;;;;;;8.02;3.92;;;5.30;99.90;;;;;;4181969;28;20052;-81
2021/12/12 06:13:44;;;;;;;9.50;4.40;;;5.40;99.90;;;;;;4182026;28;20041;-81
2021/12/12 06:15:49;;;;;;;7.43;4.15;;;5.40;99.90;;;;;;4181846;28;20048;-81
2021/12/12 06:17:51;;;;;;;8.38;3.88;;;5.40;99.90;;;;;;4181881;28;20056;-81
2021/12/12 06:19:53;;;;;;;9.88;4.13;;;5.60;99.90;;;;;;4147884;28;20057;-81
2021/12/12 06:21:56;;;;;;;7.13;4.03;;;5.40;99.90;;;;;;4180770;28;20404;-81
2021/12/12 06:23:58;;;;;;;8.15;4.30;;;6.10;99.90;;;;;;4147778;28;20050;-81
2021/12/12 06:26:01;;;;;;;8.95;3.85;;;5.50;99.90;;;;;;4164230;28;20132;-81
2021/12/12 06:28:08;;;;;;;9.38;4.53;;;5.50;99.90;;;;;;4179838;28;20041;-81
2021/12/12 06:30:13;;;;;;;7.43;3.65;;;5.50;99.90;;;;;;4165294;28;20046;-81
2021/12/12 06:32:16;;;;;;;7.25;3.60;;;5.50;99.90;;;;;;4165342;28;20469;-80
2021/12/12 06:34:17;;;;;;;6.50;3.83;;;5.50;99.90;;;;;;4148986;28;20445;-80
2021/12/12 06:36:18;;;;;;;6.88;3.90;;;5.70;99.90;;;;;;4148724;28;20108;-80
2021/12/12 06:38:21;;;;;;;7.35;3.63;;;5.50;99.90;;;;;;4148359;28;20053;-80
2021/12/12 06:40:22;;;;;;;9.13;4.00;;;5.50;99.90;;;;;;4161532;28;20050;-81
2021/12/12 06:42:24;;;;;;;6.30;3.25;;;5.50;99.90;;;;;;4142060;28;20633;-81
2021/12/12 06:44:26;;;;;;;6.80;3.13;;;5.60;99.90;;;;;;4143839;28;20116;-81
2021/12/12 06:46:27;;;;;;;5.68;3.15;;;6.10;99.90;;;;;;4136273;28;20108;-81
2021/12/12 06:48:28;;;;;;;8.68;3.90;;;5.90;99.90;;;;;;4147122;28;20490;-81
2021/12/12 06:50:30;;;;;;;6.82;3.63;;;5.70;99.90;;;;;;4148556;28;20050;-81
2021/12/12 06:52:33;;;;;;;7.22;3.50;;;5.60;99.90;;;;;;4152836;28;20462;-81
2021/12/12 06:54:34;;;;;;;7.88;3.65;;;6.10;99.90;;;;;;4165085;28;20494;-81
2021/12/12 06:56:36;;;;;;;6.65;3.92;;;5.60;99.90;;;;;;4165052;28;20052;-81
2021/12/12 06:58:37;;;;;;;7.90;3.35;;;6.10;99.90;;;;;;4147316;28;20493;-81
2021/12/12 07:00:40;;;;;;;6.95;3.90;;;5.70;99.90;;;;;;4147052;28;20144;-81
2021/12/12 07:02:43;;;;;;;7.97;4.18;;;6.90;99.90;;;;;;4146917;28;20050;-81
2021/12/12 07:04:45;;;;;;;7.82;3.63;;;5.90;99.90;;;;;;4157409;28;20045;-81
2021/12/12 07:06:48;;;;;;;8.07;4.00;;;5.70;99.90;;;;;;4131429;28;20054;-81
2021/12/12 07:08:49;;;;;;;7.65;3.90;;;5.70;99.90;;;;;;4131168;28;20458;-81
2021/12/12 07:10:51;;;;;;;9.07;3.75;;;5.70;99.90;;;;;;4139118;28;20045;-81
2021/12/12 07:12:55;;;;;;;8.48;3.90;;;6.30;99.90;;;;;;4164565;28;20057;-81
2021/12/12 07:14:56;;;;;;;8.15;4.30;;;6.80;99.90;;;;;;4164604;28;20037;-81
2021/12/12 07:16:58;;;;;;;6.93;3.72;;;5.80;99.90;;;;;;4147056;28;20053;-81
2021/12/12 07:18:59;;;;;;;7.70;3.30;;;5.80;99.90;;;;;;4147193;28;20108;-81
2021/12/12 07:21:06;;;;;;;10.77;4.60;;;6.50;99.90;;;;;;4164559;28;20522;-81
2021/12/12 07:23:08;;;;;;;6.88;3.88;;;5.80;99.90;;;;;;4146403;28;20125;-81
2021/12/12 07:25:09;;;;;;;10.23;4.35;;;5.90;99.90;;;;;;4146924;28;20045;-81
2021/12/12 07:27:14;;;;;;;10.75;3.92;;;5.80;99.90;;;;;;4146815;28;20082;-81
2021/12/12 07:29:15;;;;;;;10.27;4.30;;;5.90;99.90;;;;;;4146718;28;20058;-81
2021/12/12 07:31:20;;;;;;;8.65;4.22;;;5.90;99.90;;;;;;4164218;28;20051;-80
2021/12/12 07:33:21;;;;;;;7.75;3.78;;;6.80;99.90;;;;;;4155343;28;20136;-80
2021/12/12 07:35:23;;;;;;;8.85;4.20;;;5.90;99.90;;;;;;4149212;28;20054;-80
2021/12/12 07:37:24;;;;;;;7.72;4.22;;;6.60;99.90;;;;;;4146587;28;20147;-80
2021/12/12 07:39:27;;;;;;;7.85;4.18;;;6.60;99.90;;;;;;4146513;28;20053;-80
2021/12/12 07:41:29;;;;;;;9.63;4.55;;;6.50;99.90;;;;;;4159819;28;20076;-80
2021/12/12 07:43:32;;;;;;;10.38;4.47;;;6.00;99.90;;;;;;4180475;28;20120;-80
2021/12/12 07:45:34;;;;;;;9.82;4.70;;;6.70;99.90;;;;;;4180602;28;20041;-81
2021/12/12 07:47:35;;;;;;;9.32;4.40;;;6.00;99.90;;;;;;4162335;28;20526;-81
2021/12/12 07:49:39;;;;;;;9.68;4.32;;;6.50;99.90;;;;;;4162871;28;20081;-81
2021/12/12 07:51:41;;;;;;;9.13;4.10;;;6.60;99.90;;;;;;4162874;28;20573;-81
2021/12/12 07:53:42;;;;;;;10.57;4.30;;;6.10;99.90;;;;;;4162483;28;20045;-81
2021/12/12 07:55:44;;;;;;;9.15;4.15;;;6.80;99.90;;;;;;4162344;28;20127;-81
2021/12/12 07:57:46;;;;;;;12.23;4.30;;;6.20;99.90;;;;;;4179537;28;20048;-80
2021/12/12 07:59:49;;;;;;;9.85;4.55;;;6.10;99.90;;;;;;4162199;28;20060;-80
2021/12/12 08:01:52;;;;;;;11.48;4.90;;;6.10;99.90;;;;;;4159083;28;20060;-80
2021/12/12 08:03:56;;;;;;;10.60;4.60;;;6.10;99.90;;;;;;4167058;28;20342;-80
2021/12/12 08:06:02;;;;;;;8.55;4.57;;;7.00;99.90;;;;;;4180418;28;20463;-80
2021/12/12 08:08:07;;;;;;;10.18;4.78;;;6.10;99.90;;;;;;4153072;28;20281;-80
2021/12/12 08:10:10;;;;;;;11.32;4.63;;;6.20;99.90;;;;;;4166438;28;20049;-80
2021/12/12 08:12:15;;;;;;;10.13;4.72;;;6.40;99.90;;;;;;4162964;28;20057;-81
2021/12/12 08:14:23;;;;;;;9.73;5.00;;;6.20;99.90;;;;;;4180419;28;20045;-81
2021/12/12 08:16:24;;;;;;;9.97;4.63;;;6.50;99.90;;;;;;4180128;28;20143;-81
2021/12/12 08:18:28;;;;;;;11.45;4.78;;;6.20;99.90;;;;;;4162166;28;20064;-81
2021/12/12 08:20:30;;;;;;;10.85;4.68;;;6.90;99.90;;;;;;4178932;28;20442;-81
2021/12/12 08:22:31;;;;;;;11.25;5.03;;;7.40;99.90;;;;;;4161994;28;20053;-81
2021/12/12 08:24:35;;;;;;;11.45;4.88;;;6.30;99.90;;;;;;4148392;28;20046;-81
2021/12/12 08:26:39;;;;;;;10.43;4.55;;;6.90;99.90;;;;;;4129631;28;20060;-81
2021/12/12 08:28:42;;;;;;;11.52;5.18;;;7.00;99.90;;;;;;4152499;28;20053;-81
2021/12/12 08:30:44;;;;;;;11.63;5.30;;;6.30;99.90;;;;;;4162303;28;20124;-81
2021/12/12 08:32:48;;;;;;;11.90;5.43;;;6.30;99.90;;;;;;4163022;28;20140;-81
2021/12/12 08:34:50;;;;;;;12.32;5.18;;;6.60;99.90;;;;;;4181247;28;20124;-82
2021/12/12 08:36:54;;;;;;;12.68;5.47;;;6.40;99.90;;;;;;4162659;28;20111;-81
2021/12/12 08:38:55;;;;;;;14.30;5.95;;;6.50;99.90;;;;;;4147257;28;20117;-80
2021/12/12 08:41:00;;;;;;;14.88;5.45;;;6.40;99.90;;;;;;4157508;28;20437;-81
2021/12/12 08:43:09;;;;;;;17.17;5.32;;;6.90;99.90;;;;;;4154943;28;20064;-81
2021/12/12 08:45:14;;;;;;;17.38;5.22;;;7.00;99.90;;;;;;4166039;28;20556;-81
2021/12/12 08:47:15;;;;;;;14.38;5.50;;;6.50;99.90;;;;;;4189044;28;20053;-81
2021/12/12 08:49:20;;;;;;;12.45;5.60;;;6.50;99.90;;;;;;4181991;28;20048;-81
2021/12/12 08:51:32;;;;;;;16.50;5.60;;;7.00;99.90;;;;;;4161788;28;20049;-81
2021/12/12 08:53:34;;;;;;;12.25;5.53;;;6.50;99.90;;;;;;4148828;28;20058;-82
2021/12/12 08:55:38;;;;;;;16.98;6.20;;;7.10;99.90;;;;;;4164522;28;20532;-81
2021/12/12 08:58:05;;;;;;;15.65;6.53;;;6.50;99.90;;;;;;4164328;28;20038;-81
2021/12/12 09:00:07;;;;;;;14.80;5.82;;;7.10;99.90;;;;;;4163292;28;20055;-81
2021/12/12 09:02:13;;;;;;;15.32;6.05;;;6.60;99.90;;;;;;4146765;28;20054;-82
2021/12/12 09:04:14;;;;;;;19.48;6.65;;;7.10;99.90;;;;;;4159176;28;20046;-81
2021/12/12 09:06:17;;;;;;;20.27;6.65;;;6.70;99.90;;;;;;4162758;28;20107;-81
2021/12/12 09:08:43;;;;;;;19.85;6.85;;;7.40;99.90;;;;;;4162949;28;20057;-80
2021/12/12 09:10:51;;;;;;;13.98;6.03;;;7.90;99.90;;;;;;4161552;28;20079;-81
2021/12/12 09:13:06;;;;;;;17.55;6.22;;;7.40;99.90;;;;;;4147137;28;20053;-81
2021/12/12 09:15:17;;;;;;;17.05;7.05;;;6.70;99.90;;;;;;4162530;28;20434;-81
2021/12/12 09:17:33;;;;;;;16.33;6.00;;;6.70;99.90;;;;;;4178441;28;20053;-81
2021/12/12 09:20:03;;;;;;;14.73;5.88;;;6.70;99.90;;;;;;4146485;28;20057;-81
2021/12/12 09:22:09;;;;;;;19.17;6.85;;;6.70;99.90;;;;;;4161149;28;20054;-81
2021/12/12 09:24:17;;;;;;;17.58;6.30;;;6.70;99.90;;;;;;4162544;28;20081;-82
2021/12/12 09:26:23;;;;;;;18.88;6.25;;;7.30;99.90;;;;;;4162187;28;20438;-81
2021/12/12 09:28:55;;;;;;;19.95;6.80;;;6.80;99.90;;;;;;4162262;28;20139;-81
2021/12/12 09:31:03;;;;;;;20.42;5.85;;;6.80;99.90;;;;;;4146052;28;20077;-81
2021/12/12 09:33:12;;;;;;;17.95;6.93;;;6.90;99.90;;;;;;4162425;28;20133;-81
2021/12/12 09:35:23;;;;;;;19.13;6.78;;;6.90;99.90;;;;;;4162244;28;20498;-81
2021/12/12 09:37:34;;;;;;;21.15;6.80;;;6.90;99.90;;;;;;4162410;28;20045;-81
2021/12/12 09:39:47;;;;;;;23.85;7.53;;;7.00;99.90;;;;;;4180401;28;20052;-81
2021/12/12 09:42:22;;;;;;;20.70;7.07;;;7.00;99.90;;;;;;4162257;28;20054;-81
2021/12/12 09:44:45;;;;;;;26.10;7.85;;;7.00;99.90;;;;;;4148998;28;20046;-81
2021/12/12 09:47:00;;;;;;;25.20;8.32;;;7.00;99.90;;;;;;4162044;28;20128;-81
2021/12/12 09:52:28;;;;;;;23.55;8.10;;;7.10;99.90;;;;;;4165231;28;20045;-81
2021/12/12 09:55:02;;;;;;;33.30;8.82;;;7.10;99.90;;;;;;4134038;28;20121;-81
2021/12/12 09:57:06;;;;;;;26.75;8.27;;;7.10;99.90;;;;;;4180162;28;20057;-81
2021/12/12 09:59:28;;;;;;;28.80;8.38;;;7.20;99.90;;;;;;4182591;28;20049;-80
2021/12/12 10:01:48;;;;;;;28.73;8.70;;;7.20;99.90;;;;;;4182561;28;20044;-79
2021/12/12 10:04:08;;;;;;;27.25;8.52;;;7.20;99.90;;;;;;4165473;28;20046;-81
2021/12/12 10:06:33;;;;;;;31.42;9.52;;;7.30;99.90;;;;;;4165019;28;20045;-80
2021/12/12 10:09:01;;;;;;;28.95;7.75;;;7.30;99.90;;;;;;4164843;28;20049;-81
2021/12/12 10:11:08;;;;;;;25.45;8.18;;;7.40;99.90;;;;;;4164823;28;20045;-81
2021/12/12 10:13:34;;;;;;;32.85;9.23;;;7.40;99.90;;;;;;4148833;28;20107;-81
2021/12/12 10:15:45;;;;;;;29.05;9.63;;;7.40;99.90;;;;;;4148821;28;20108;-82
2021/12/12 10:17:56;;;;;;;41.15;10.43;;;7.50;99.90;;;;;;4165117;28;20049;-81
2021/12/12 10:20:06;;;;;;;38.80;9.77;;;7.50;99.90;;;;;;4182199;28;20485;-81
2021/12/12 10:22:33;;;;;;;42.75;9.82;;;7.50;99.90;;;;;;4164167;28;20048;-80
2021/12/12 10:24:39;;;;;;;41.42;8.93;;;7.50;99.90;;;;;;4164218;28;20051;-80
2021/12/12 10:26:48;;;;;;;36.55;10.10;;;7.60;99.90;;;;;;4181654;28;20029;-81
2021/12/12 10:28:57;;;;;;;33.13;9.88;;;7.70;99.90;;;;;;4170037;28;20099;-80
2021/12/12 10:31:07;;;;;;;32.92;9.88;;;7.70;99.90;;;;;;4163042;28;20049;-81
2021/12/12 10:33:22;;;;;;;33.30;9.45;;;7.70;99.90;;;;;;4181333;28;20160;-81
2021/12/12 10:35:50;;;;;;;48.17;10.27;;;8.10;99.90;;;;;;4163612;28;20457;-81
2021/12/12 10:37:54;;;;;;;36.70;8.30;;;7.70;99.90;;;;;;4143893;28;20059;-81
2021/12/12 10:40:05;;;;;;;34.83;9.38;;;7.80;99.90;;;;;;4181187;28;20094;-82
2021/12/12 10:42:14;;;;;;;33.38;9.10;;;7.80;99.90;;;;;;4182072;28;20492;-80
2021/12/12 10:44:25;;;;;;;;;;;7.80;99.90;;;;;;4164426;28;20049;-80
2021/12/12 10:46:43;;;;;;;31.05;8.93;;;7.90;99.90;;;;;;4163581;28;19929;-80
2021/12/12 10:49:00;;;;;;;33.33;8.52;;;8.30;99.90;;;;;;4178824;28;20086;-81
2021/12/12 10:51:21;;;;;;;36.30;9.18;;;8.00;99.90;;;;;;4181301;28;20493;-81
2021/12/12 10:53:29;;;;;;;32.97;8.85;;;8.00;99.90;;;;;;4181019;28;20124;-81
2021/12/12 10:56:03;;;;;;;32.97;8.63;;;8.30;99.90;;;;;;4181070;28;20063;-82
2021/12/12 10:58:14;;;;;;;28.92;8.48;;;8.40;99.90;;;;;;4148038;28;20543;-81
2021/12/12 11:00:20;;;;;;;36.50;9.73;;;8.00;99.90;;;;;;4147431;28;20099;-80
2021/12/12 11:02:39;;;;;;;39.65;9.27;;;8.00;99.90;;;;;;4164940;28;20073;-82
2021/12/12 11:04:47;;;;;;;32.80;8.13;;;8.10;99.90;;;;;;4166632;28;20050;-81
2021/12/12 11:07:00;;;;;;;32.75;9.60;;;8.10;99.90;;;;;;4180606;28;20047;-80
2021/12/12 11:09:38;;;;;;;27.02;7.80;;;8.70;99.90;;;;;;4180612;28;20505;-81
2021/12/12 11:12:19;;;;;;;30.67;7.63;;;8.20;99.90;;;;;;4178948;28;20041;-81
2021/12/12 11:14:24;;;;;;;22.08;7.60;;;8.20;99.90;;;;;;4114846;28;20410;-81
2021/12/12 11:16:50;;;;;;;30.30;7.40;;;8.20;99.90;;;;;;4181073;28;20036;-82
2021/12/12 11:19:02;;;;;;;30.77;7.53;;;8.20;99.90;;;;;;4151687;28;20045;-81
2021/12/12 11:21:26;;;;;;;23.70;8.20;;;8.30;99.90;;;;;;4131035;28;20050;-81
2021/12/12 11:24:16;;;;;;;29.27;8.27;;;8.30;99.90;;;;;;4159589;28;20069;-82